Time;durP1;ratioP1;P1;durP2;ratioP2;P2;SDS_P1;SDS_P2;PMS_P1;PMS_P2;Temp;Humidity;BMP_temperature;BMP_pressure;BME280_temperature;BME280_humidity;BME280_pressure;Samples;Min_cycle;Max_cycle;Signal;HPM_P1;HPM_P2
2022/10/19 00:00:15;;;;;;;10.83;6.63;;;;;;;9.28;100.00;101814.03;5045175;28;20590;-73
2022/10/19 00:02:41;;;;;;;13.37;7.20;;;;;;;9.27;100.00;101821.00;5037831;28;20675;-72
2022/10/19 00:05:08;;;;;;;13.13;6.60;;;;;;;9.28;100.00;101827.91;5035456;28;20227;-72
2022/10/19 00:07:35;;;;;;;13.40;7.00;;;;;;;9.32;100.00;101815.75;5041695;28;20528;-72
2022/10/19 00:10:01;;;;;;;12.00;6.23;;;;;;;9.34;100.00;101820.97;5049457;28;20943;-73
2022/10/19 00:12:27;;;;;;;11.03;6.20;;;;;;;9.35;100.00;101820.09;5045174;28;20575;-73
2022/10/19 00:14:54;;;;;;;15.80;7.20;;;;;;;9.31;100.00;101821.84;5046835;28;20605;-73
2022/10/19 00:17:21;;;;;;;11.90;6.30;;;;;;;9.25;100.00;101814.94;5044933;28;20608;-73
2022/10/19 00:19:48;;;;;;;9.53;6.20;;;;;;;9.19;100.00;101814.91;5043407;28;20203;-73
2022/10/19 00:22:14;;;;;;;9.83;5.13;;;;;;;9.08;100.00;101814.94;5038206;28;20736;-73
2022/10/19 00:24:40;;;;;;;17.53;6.23;;;;;;;9.05;100.00;101822.75;5042007;28;20201;-73
2022/10/19 00:27:07;;;;;;;12.20;5.73;;;;;;;8.95;100.00;101826.22;5040014;28;20228;-73
2022/10/19 00:29:33;;;;;;;8.57;5.07;;;;;;;8.88;100.00;101827.97;5046315;28;20231;-72
2022/10/19 00:31:59;;;;;;;7.53;5.27;;;;;;;8.83;100.00;101828.81;5049814;28;20220;-73
2022/10/19 00:34:27;;;;;;;8.53;5.43;;;;;;;8.76;100.00;101827.97;5045395;28;20210;-73
2022/10/19 00:36:53;;;;;;;8.23;4.87;;;;;;;8.71;100.00;101829.69;5042008;28;20217;-72
2022/10/19 00:39:20;;;;;;;10.33;5.67;;;;;;;8.67;100.00;101826.22;5047354;28;20250;-73
2022/10/19 00:41:47;;;;;;;6.67;4.10;;;;;;;8.62;100.00;101830.56;5039424;28;20204;-73
2022/10/19 00:44:47;;;;;;;10.33;4.73;;;;;;;8.55;100.00;101818.41;5036461;28;20219;-73
2022/10/19 00:47:15;;;;;;;13.13;5.83;;;;;;;8.53;100.00;101820.13;5039888;28;20238;-73
2022/10/19 00:49:45;;;;;;;6.73;5.13;;;;;;;8.50;100.00;101828.78;5041765;28;20230;-73
2022/10/19 00:52:14;;;;;;;7.73;5.47;;;;;;;8.52;100.00;101828.78;5039724;28;20202;-72
2022/10/19 00:54:42;;;;;;;14.57;6.20;;;;;;;8.55;100.00;101825.31;5043090;28;20201;-71
2022/10/19 00:57:10;;;;;;;9.57;4.93;;;;;;;8.59;100.00;101824.47;5037498;28;20595;-73
2022/10/19 00:59:39;;;;;;;7.53;5.10;;;;;;;8.65;100.00;101834.88;5036697;28;20210;-73
2022/10/19 01:02:06;;;;;;;15.27;5.40;;;;;;;8.70;100.00;101835.75;5046614;28;20269;-73
2022/10/19 01:04:36;;;;;;;7.80;4.83;;;;;;;8.71;100.00;101825.34;5038411;28;20575;-72
2022/10/19 01:07:05;;;;;;;12.33;5.50;;;;;;;8.76;100.00;101832.28;5044640;28;20234;-72
2022/10/19 01:09:31;;;;;;;11.17;5.33;;;;;;;8.82;100.00;101827.94;5043039;28;20284;-72
2022/10/19 01:12:04;;;;;;;8.40;4.57;;;;;;;8.82;100.00;101827.94;5043793;28;20203;-73
2022/10/19 01:14:47;;;;;;;8.77;5.17;;;;;;;8.83;100.00;101828.81;5037783;28;20422;-73
2022/10/19 01:17:23;;;;;;;10.47;4.73;;;;;;;8.84;100.00;101834.00;5040386;28;20219;-73
2022/10/19 01:20:24;;;;;;;11.93;4.87;;;;;;;8.81;100.00;101828.84;5041611;28;20210;-73
2022/10/19 01:23:05;;;;;;;11.80;4.80;;;;;;;8.78;100.00;101826.22;5038701;28;20229;-73
2022/10/19 01:25:48;;;;;;;12.50;5.10;;;;;;;8.75;100.00;101825.34;5039802;28;20208;-73
2022/10/19 01:28:32;;;;;;;10.53;4.70;;;;;;;8.72;100.00;101828.81;5043614;28;20219;-74
2022/10/19 01:31:04;;;;;;;11.53;5.20;;;;;;;8.70;100.00;101822.75;5040752;28;20208;-73
2022/10/19 01:33:39;;;;;;;13.50;4.57;;;;;;;8.69;100.00;101836.63;5041851;28;20537;-73
2022/10/19 01:36:16;;;;;;;6.93;4.20;;;;;;;8.68;100.00;101835.75;5043426;28;20203;-73
2022/10/19 01:38:50;;;;;;;12.40;4.53;;;;;;;8.65;100.00;101830.56;5042469;28;20203;-73
2022/10/19 01:41:26;;;;;;;9.37;4.23;;;;;;;8.62;100.00;101827.06;5033158;28;20206;-73
2022/10/19 01:43:59;;;;;;;7.37;4.40;;;;;;;8.57;100.00;101826.22;5043963;28;20480;-73
2022/10/19 01:46:32;;;;;;;11.00;3.83;;;;;;;8.51;100.00;101821.84;5048065;28;20215;-73
2022/10/19 01:49:02;;;;;;;6.77;3.83;;;;;;;8.45;100.00;101816.66;5044083;28;20191;-73
2022/10/19 01:51:32;;;;;;;9.10;3.90;;;;;;;8.37;100.00;101826.13;5040375;28;20200;-73
2022/10/19 01:54:03;;;;;;;7.87;3.77;;;;;;;8.36;100.00;101819.22;5042710;28;20646;-73
2022/10/19 01:56:33;;;;;;;12.87;4.13;;;;;;;8.24;100.00;101815.72;5037169;28;20239;-73
2022/10/19 01:59:04;;;;;;;7.33;3.93;;;;;;;8.24;100.00;101812.25;5040422;28;20212;-73
2022/10/19 02:01:35;;;;;;;8.23;4.47;;;;;;;8.25;100.00;101803.56;5043691;28;20295;-73
2022/10/19 02:04:02;;;;;;;9.63;3.50;;;;;;;8.26;100.00;101803.56;5043730;28;20207;-73
2022/10/19 02:06:29;;;;;;;5.83;3.20;;;;;;;8.28;100.00;101806.19;5044005;28;20958;-73
2022/10/19 02:08:55;;;;;;;6.37;3.60;;;;;;;8.28;100.00;101798.38;5041818;28;20215;-73
2022/10/19 02:11:23;;;;;;;6.73;3.47;;;;;;;8.26;100.00;101807.91;5039038;28;20206;-73
2022/10/19 02:13:56;;;;;;;5.10;3.17;;;;;;;8.26;100.00;101800.13;5046471;28;20539;-73
2022/10/19 02:16:27;;;;;;;4.37;3.20;;;;;;;8.29;100.00;101800.13;5044871;28;20598;-73
2022/10/19 02:18:56;;;;;;;8.83;3.47;;;;;;;8.26;100.00;101800.13;5041783;28;20198;-73
2022/10/19 02:21:23;;;;;;;4.53;3.27;;;;;;;8.26;100.00;101795.78;5044468;28;20198;-73
2022/10/19 02:23:50;;;;;;;8.43;3.57;;;;;;;8.22;100.00;101799.25;5045894;28;20214;-73
2022/10/19 02:26:16;;;;;;;10.10;3.87;;;;;;;8.20;100.00;101800.97;5042128;28;20219;-73
2022/10/19 02:28:42;;;;;;;11.53;3.83;;;;;;;8.22;100.00;101799.25;5042681;28;20566;-74
2022/10/19 02:31:09;;;;;;;5.30;3.20;;;;;;;8.21;100.00;101797.50;5043964;28;20219;-73
2022/10/19 02:33:36;;;;;;;9.13;3.50;;;;;;;8.22;100.00;101798.41;5046447;28;20222;-73
2022/10/19 02:36:04;;;;;;;7.93;3.20;;;;;;;8.20;100.00;101806.19;5042054;28;20206;-73
2022/10/19 02:38:31;;;;;;;11.47;3.20;;;;;;;8.18;100.00;101800.13;5042465;28;20211;-73
2022/10/19 02:41:06;;;;;;;8.90;3.03;;;;;;;8.19;100.00;101794.03;5041301;28;20198;-73
2022/10/19 02:43:36;;;;;;;7.20;3.07;;;;;;;8.18;100.00;101792.31;5036159;28;20204;-73
2022/10/19 02:46:08;;;;;;;7.03;3.27;;;;;;;8.20;100.00;101792.34;5041192;28;20660;-73
2022/10/19 02:48:37;;;;;;;6.50;2.93;;;;;;;8.20;100.00;101792.34;5054480;22;20599;-73
2022/10/19 02:51:05;;;;;;;6.83;3.60;;;;;;;8.14;100.00;101783.66;5040285;28;20224;-73
2022/10/19 02:53:32;;;;;;;4.53;2.90;;;;;;;8.13;100.00;101788.84;5042028;28;20219;-74
2022/10/19 02:55:58;;;;;;;4.53;2.77;;;;;;;8.07;100.00;101786.22;5038709;28;20215;-73
2022/10/19 02:58:24;;;;;;;3.87;2.80;;;;;;;8.05;100.00;101783.59;5037574;28;20234;-73
2022/10/19 03:00:51;;;;;;;7.70;3.57;;;;;;;7.92;100.00;101777.53;5042448;28;20210;-74
2022/10/19 03:03:17;;;;;;;7.73;3.60;;;;;;;7.86;100.00;101771.44;5040700;28;20227;-74
2022/10/19 03:05:44;;;;;;;8.80;3.23;;;;;;;7.66;100.00;101769.63;5037292;28;20665;-74
2022/10/19 03:08:11;;;;;;;4.37;3.00;;;;;;;7.62;100.00;101777.41;5036635;28;20579;-73
2022/10/19 03:10:38;;;;;;;6.37;3.00;;;;;;;7.52;100.00;101776.50;5035850;28;20222;-73
2022/10/19 03:13:04;;;;;;;8.17;3.30;;;;;;;7.52;100.00;101779.94;5044182;28;20223;-73
2022/10/19 03:15:30;;;;;;;5.00;3.70;;;;;;;7.52;100.00;101784.28;5045271;28;20277;-74
2022/10/19 03:17:57;;;;;;;7.10;3.20;;;;;;;7.49;100.00;101790.34;5044700;28;20702;-74
2022/10/19 03:20:23;;;;;;;5.83;3.57;;;;;;;7.55;100.00;101792.09;5048356;28;20667;-74
2022/10/19 03:22:50;;;;;;;5.73;3.00;;;;;;;7.59;100.00;101788.63;5048010;28;20228;-74
2022/10/19 03:25:18;;;;;;;6.00;3.00;;;;;;;7.59;100.00;101799.88;5045273;28;20539;-73
2022/10/19 03:27:44;;;;;;;9.97;3.30;;;;;;;7.64;100.00;101789.53;5047411;28;20288;-73
2022/10/19 03:30:11;;;;;;;7.23;3.40;;;;;;;7.70;100.00;101786.94;5047514;28;20226;-73
2022/10/19 03:32:37;;;;;;;5.30;3.53;;;;;;;7.74;100.00;101786.13;5037638;28;20226;-74
2022/10/19 03:35:05;;;;;;;6.73;3.27;;;;;;;7.76;100.00;101791.31;5040335;28;20206;-73
2022/10/19 03:37:31;;;;;;;4.40;3.23;;;;;;;7.78;100.00;101790.44;5043583;28;20540;-73
2022/10/19 03:39:58;;;;;;;4.23;3.17;;;;;;;7.84;100.00;101786.13;5043381;28;20228;-74
2022/10/19 03:42:25;;;;;;;5.50;3.43;;;;;;;7.88;100.00;101800.84;5047369;28;20785;-74
2022/10/19 03:44:52;;;;;;;6.70;3.30;;;;;;;7.81;100.00;101799.09;5048016;28;20563;-73
2022/10/19 03:47:18;;;;;;;4.50;2.77;;;;;;;7.86;100.00;101797.41;5047323;28;20222;-73
2022/10/19 03:49:44;;;;;;;8.67;3.20;;;;;;;7.88;100.00;101809.53;5044967;28;20602;-73
2022/10/19 03:52:11;;;;;;;3.80;2.87;;;;;;;7.94;100.00;101809.56;5043423;28;20230;-74
2022/10/19 03:54:38;;;;;;;6.00;3.23;;;;;;;7.94;100.00;101798.31;5045207;28;20199;-73
2022/10/19 03:57:04;;;;;;;4.13;2.93;;;;;;;7.99;100.00;101803.53;5043610;28;20609;-73
2022/10/19 03:59:32;;;;;;;5.63;2.67;;;;;;;7.99;100.00;101800.94;5045422;28;20230;-74
2022/10/19 04:01:58;;;;;;;3.57;2.83;;;;;;;8.04;100.00;101792.28;5040267;28;20210;-73
2022/10/19 04:04:24;;;;;;;5.60;3.00;;;;;;;8.04;100.00;101812.16;5045453;28;20226;-74
2022/10/19 04:06:52;;;;;;;4.40;3.00;;;;;;;8.02;100.00;101812.19;5046722;28;20294;-73
2022/10/19 04:09:21;;;;;;;4.40;3.07;;;;;;;8.03;100.00;101813.91;5046038;28;20457;-74
2022/10/19 04:11:49;;;;;;;6.43;3.17;;;;;;;8.04;100.00;101817.38;5042649;28;20228;-73
2022/10/19 04:14:17;;;;;;;3.93;2.63;;;;;;;8.05;100.00;101819.13;5044814;28;20222;-74
2022/10/19 04:16:45;;;;;;;4.27;2.90;;;;;;;8.04;100.00;101823.44;5042975;28;20199;-74
2022/10/19 04:19:14;;;;;;;6.30;2.90;;;;;;;8.07;100.00;101819.97;5041953;28;20204;-73
2022/10/19 04:21:42;;;;;;;4.90;3.13;;;;;;;8.10;100.00;101823.44;5043659;28;20282;-73
2022/10/19 04:24:11;;;;;;;4.93;2.83;;;;;;;8.14;100.00;101819.13;5043672;28;20269;-74
2022/10/19 04:26:39;;;;;;;4.83;3.23;;;;;;;8.13;100.00;101823.47;5040021;28;20206;-74
2022/10/19 04:29:05;;;;;;;7.80;2.93;;;;;;;8.10;100.00;101826.06;5043128;28;20203;-74
2022/10/19 04:31:31;;;;;;;7.57;2.63;;;;;;;8.08;100.00;101822.59;5042598;28;20249;-74
2022/10/19 04:33:59;;;;;;;8.97;3.57;;;;;;;8.09;100.00;101816.53;5038601;28;20619;-73
2022/10/19 04:36:26;;;;;;;4.70;3.10;;;;;;;8.08;100.00;101822.59;5043466;28;20198;-73
2022/10/19 04:38:52;;;;;;;5.97;3.23;;;;;;;8.13;100.00;101823.47;5041397;28;20699;-74
2022/10/19 04:41:20;;;;;;;7.20;2.87;;;;;;;8.12;100.00;101820.88;5040084;28;20192;-73
2022/10/19 04:43:47;;;;;;;6.10;2.97;;;;;;;8.04;100.00;101815.66;5042035;28;20607;-74
2022/10/19 04:46:15;;;;;;;4.47;2.70;;;;;;;8.06;100.00;101829.50;5024760;28;20683;-74
2022/10/19 04:48:43;;;;;;;3.17;2.60;;;;;;;8.09;100.00;101823.44;5040183;28;20208;-74
2022/10/19 04:51:11;;;;;;;4.60;2.60;;;;;;;8.06;100.00;101818.25;5037892;28;20211;-74
2022/10/19 04:53:40;;;;;;;9.13;2.80;;;;;;;8.06;100.00;101823.47;5043375;28;20679;-73
2022/10/19 04:56:09;;;;;;;3.80;2.60;;;;;;;8.02;100.00;101835.56;5042748;28;20197;-74
2022/10/19 04:58:35;;;;;;;3.87;2.87;;;;;;;8.01;100.00;101827.78;5037556;28;20241;-74
2022/10/19 05:01:07;;;;;;;5.43;3.03;;;;;;;7.97;100.00;101837.28;5041157;28;20199;-74
2022/10/19 05:03:34;;;;;;;5.67;2.70;;;;;;;8.01;100.00;101823.44;5037300;28;20223;-74
2022/10/19 05:06:00;;;;;;;7.90;3.10;;;;;;;8.02;100.00;101827.78;5036919;28;20201;-74
2022/10/19 05:08:28;;;;;;;5.93;2.73;;;;;;;8.00;100.00;101819.09;5038028;28;20203;-74
2022/10/19 05:10:54;;;;;;;8.10;2.87;;;;;;;8.05;100.00;101825.16;5034717;28;20214;-74
2022/10/19 05:13:20;;;;;;;7.93;3.30;;;;;;;8.01;100.00;101822.56;5036225;28;20595;-74
2022/10/19 05:15:55;;;;;;;5.13;2.60;;;;;;;8.03;100.00;101829.50;5039470;28;20218;-74
2022/10/19 05:18:22;;;;;;;8.13;3.20;;;;;;;8.08;100.00;101827.78;5040691;28;20198;-73
2022/10/19 05:20:48;;;;;;;5.30;2.60;;;;;;;8.10;100.00;101833.84;5036935;28;20195;-74
2022/10/19 05:23:15;;;;;;;10.17;3.20;;;;;;;8.06;100.00;101832.13;5038336;28;20305;-74
2022/10/19 05:25:42;;;;;;;9.23;2.80;;;;;;;8.06;100.00;101836.44;5037848;28;20270;-73
2022/10/19 05:28:09;;;;;;;5.13;3.03;;;;;;;8.08;100.00;101834.72;5039361;28;20203;-73
2022/10/19 05:30:36;;;;;;;8.53;2.90;;;;;;;8.05;100.00;101842.50;5037945;28;20213;-73
2022/10/19 05:33:02;;;;;;;6.23;3.13;;;;;;;8.04;100.00;101849.44;5042017;28;20863;-73
2022/10/19 05:35:31;;;;;;;5.57;2.40;;;;;;;8.08;100.00;101845.97;5040300;28;20208;-73
2022/10/19 05:37:58;;;;;;;4.03;2.93;;;;;;;8.07;100.00;101841.66;5033799;28;20206;-73
2022/10/19 05:40:24;;;;;;;5.30;3.10;;;;;;;8.08;100.00;101845.09;5040258;28;20207;-73
2022/10/19 05:42:52;;;;;;;4.47;2.83;;;;;;;8.04;100.00;101841.63;5043489;28;20215;-74
2022/10/19 05:45:18;;;;;;;8.00;3.00;;;;;;;8.06;100.00;101847.69;5042706;28;20208;-74
2022/10/19 05:47:44;;;;;;;4.23;3.17;;;;;;;8.07;100.00;101841.66;5043819;28;20203;-73
2022/10/19 05:50:11;;;;;;;4.77;2.60;;;;;;;8.10;100.00;101845.97;5040268;28;20199;-74
2022/10/19 05:52:37;;;;;;;5.10;2.80;;;;;;;8.07;100.00;101839.06;5043271;28;20580;-73
2022/10/19 05:55:04;;;;;;;5.23;3.10;;;;;;;8.09;100.00;101850.31;5045107;28;20213;-74
2022/10/19 05:57:31;;;;;;;7.20;2.83;;;;;;;8.11;100.00;101860.72;5044684;28;20667;-74
2022/10/19 05:59:59;;;;;;;9.00;3.10;;;;;;;8.10;100.00;101859.81;5039539;28;20210;-74
2022/10/19 06:02:25;;;;;;;5.17;3.30;;;;;;;8.09;100.00;101858.09;5040635;28;20221;-73
2022/10/19 06:04:51;;;;;;;5.63;3.30;;;;;;;8.13;100.00;101858.97;5039080;28;20572;-73
2022/10/19 06:07:18;;;;;;;6.57;3.50;;;;;;;8.13;100.00;101858.97;5038730;28;20293;-73
2022/10/19 06:09:44;;;;;;;6.93;2.80;;;;;;;8.18;100.00;101865.06;5036419;28;20204;-73
2022/10/19 06:12:11;;;;;;;5.53;2.93;;;;;;;8.23;100.00;101863.34;5036099;28;20214;-73
2022/10/19 06:14:37;;;;;;;11.10;3.40;;;;;;;8.20;100.00;101868.53;5019089;28;20208;-74
2022/10/19 06:17:05;;;;;;;3.97;3.47;;;;;;;8.23;100.00;101865.94;5039803;28;20199;-73
2022/10/19 06:19:32;;;;;;;4.17;2.77;;;;;;;8.27;100.00;101866.84;5040953;28;20191;-73
2022/10/19 06:21:58;;;;;;;9.10;2.60;;;;;;;8.31;100.00;101871.16;5036852;28;20197;-73
2022/10/19 06:24:24;;;;;;;5.97;3.17;;;;;;;8.33;100.00;101870.28;5040348;28;20602;-73
2022/10/19 06:26:51;;;;;;;10.63;3.00;;;;;;;8.34;100.00;101868.59;5036826;28;20195;-73
2022/10/19 06:29:18;;;;;;;5.30;3.23;;;;;;;8.32;100.00;101873.78;5040570;28;20209;-73
2022/10/19 06:31:45;;;;;;;6.80;2.83;;;;;;;8.35;100.00;101875.50;5040388;28;20703;-73
2022/10/19 06:34:12;;;;;;;6.13;3.30;;;;;;;8.37;100.00;101878.97;5034953;28;20239;-73
2022/10/19 06:36:39;;;;;;;5.60;3.17;;;;;;;8.41;100.00;101875.53;5041939;28;20676;-73
2022/10/19 06:39:05;;;;;;;4.80;3.30;;;;;;;8.47;100.00;101878.16;5044797;28;20195;-74
2022/10/19 06:41:33;;;;;;;6.47;3.13;;;;;;;8.56;100.00;101882.50;5038487;28;20668;-73
2022/10/19 06:44:17;;;;;;;5.60;3.30;;;;;;;8.51;100.00;101881.63;5047605;28;20613;-73
2022/10/19 06:46:43;;;;;;;4.23;3.10;;;;;;;8.53;100.00;101882.50;5045373;28;20196;-74
2022/10/19 06:49:13;;;;;;;8.23;3.97;;;;;;;8.57;100.00;101880.81;5043822;28;20203;-74
2022/10/19 06:51:40;;;;;;;5.30;2.90;;;;;;;8.58;100.00;101885.97;5047736;28;20226;-74
2022/10/19 06:54:07;;;;;;;4.73;3.27;;;;;;;8.65;100.00;101885.16;5044028;28;20228;-74
2022/10/19 06:56:33;;;;;;;6.73;3.07;;;;;;;8.64;100.00;101899.00;5047663;28;20200;-74
2022/10/19 06:58:59;;;;;;;4.40;2.80;;;;;;;8.67;100.00;101898.13;5041620;28;20207;-74
2022/10/19 07:01:26;;;;;;;3.63;2.60;;;;;;;8.68;100.00;101905.94;5048139;28;20214;-74
2022/10/19 07:03:54;;;;;;;4.50;2.63;;;;;;;8.74;100.00;101896.41;5047221;28;20308;-74
2022/10/19 07:06:22;;;;;;;5.10;2.90;;;;;;;8.78;100.00;101900.78;5045226;28;20202;-74
2022/10/19 07:08:49;;;;;;;3.53;2.80;;;;;;;8.81;100.00;101900.75;5047094;28;20211;-74
2022/10/19 07:11:17;;;;;;;6.27;3.03;;;;;;;8.87;100.00;101906.00;5045105;28;20228;-74
2022/10/19 07:13:44;;;;;;;8.40;3.07;;;;;;;8.90;100.00;101908.59;5041822;28;20224;-74
2022/10/19 07:16:13;;;;;;;6.00;3.33;;;;;;;8.90;100.00;101901.66;5043455;28;20195;-74
2022/10/19 07:18:40;;;;;;;6.27;3.20;;;;;;;8.90;100.00;101917.25;5036831;28;20205;-74
2022/10/19 07:21:08;;;;;;;6.23;2.90;;;;;;;8.96;100.00;101908.59;5047359;28;20204;-74
2022/10/19 07:23:38;;;;;;;5.37;2.63;;;;;;;8.96;100.00;101918.13;5045094;28;20215;-74
2022/10/19 07:26:06;;;;;;;9.47;3.10;;;;;;;8.98;100.00;101909.47;5026448;28;20568;-74
2022/10/19 07:28:34;;;;;;;4.40;2.90;;;;;;;9.05;100.00;101912.94;5043643;28;20234;-74
2022/10/19 07:31:05;;;;;;;5.60;2.63;;;;;;;9.01;100.00;101917.28;5042910;28;20223;-74
2022/10/19 07:33:33;;;;;;;5.33;3.10;;;;;;;9.05;100.00;101910.34;5019996;28;20335;-74
2022/10/19 07:36:00;;;;;;;4.23;2.30;;;;;;;9.05;100.00;101915.53;5043393;28;20590;-74
2022/10/19 07:38:26;;;;;;;4.97;2.97;;;;;;;9.08;100.00;101915.56;5042909;28;20285;-74
2022/10/19 07:41:05;;;;;;;5.10;2.67;;;;;;;9.08;100.00;101915.56;5042003;28;20199;-74
2022/10/19 07:43:32;;;;;;;5.70;3.10;;;;;;;9.14;100.00;101914.69;5045071;28;20241;-74
2022/10/19 07:46:00;;;;;;;3.57;2.33;;;;;;;9.18;100.00;101911.19;5043093;28;20530;-74
2022/10/19 07:48:27;;;;;;;5.27;2.20;;;;;;;9.18;100.00;101908.59;5047254;28;20652;-74
2022/10/19 07:50:53;;;;;;;7.03;2.13;;;;;;;9.17;100.00;101910.34;5047478;28;20209;-74
2022/10/19 07:53:20;;;;;;;4.77;2.17;;;;;;;9.21;100.00;101912.06;5038905;28;20583;-74
2022/10/19 07:55:46;;;;;;;3.63;2.00;;;;;;;9.34;100.00;101910.34;5042996;28;20209;-74
2022/10/19 07:58:14;;;;;;;2.80;1.97;;;;;;;9.38;100.00;101909.47;5044485;28;20204;-74
2022/10/19 08:00:40;;;;;;;3.47;1.87;;;;;;;9.38;100.00;101917.28;5046022;28;20214;-74
2022/10/19 08:03:07;;;;;;;4.57;2.30;;;;;;;9.44;100.00;101916.41;5045857;28;20457;-74
2022/10/19 08:05:34;;;;;;;3.57;2.17;;;;;;;9.52;100.00;101919.88;5039825;28;20220;-74
2022/10/19 08:08:00;;;;;;;3.43;1.90;;;;;;;9.47;100.00;101913.81;5045813;28;20216;-75
2022/10/19 08:10:27;;;;;;;3.00;2.07;;;;;;;9.67;100.00;101918.97;5044583;28;20696;-74
2022/10/19 08:12:53;;;;;;;2.10;1.83;;;;;;;9.72;100.00;101921.59;5045535;28;20580;-74
2022/10/19 08:15:21;;;;;;;7.10;1.80;;;;;;;9.73;100.00;101915.50;5046439;28;20208;-75
2022/10/19 08:17:47;;;;;;;5.03;2.47;;;;;;;9.82;100.00;101916.34;5043554;28;20201;-74
2022/10/19 08:20:14;;;;;;;6.77;4.27;;;;;;;9.90;100.00;101915.44;5042207;28;20203;-74
2022/10/19 08:22:40;;;;;;;2.87;2.00;;;;;;;9.85;100.00;101918.09;5039082;28;20226;-75
2022/10/19 08:25:07;;;;;;;3.60;1.90;;;;;;;9.93;100.00;101921.53;5042705;28;20220;-75
2022/10/19 08:27:33;;;;;;;2.47;1.77;;;;;;;9.97;100.00;101911.94;5044447;28;20214;-74
2022/10/19 08:30:00;;;;;;;6.93;2.20;;;;;;;9.99;100.00;101915.41;5040913;28;20206;-74
2022/10/19 08:32:28;;;;;;;2.70;1.77;;;;;;;10.10;100.00;101918.00;5051599;23;20300;31
2022/10/19 08:34:56;;;;;;;4.77;1.70;;;;;;;10.04;100.00;101927.59;5059641;28;20701;-74
2022/10/19 08:37:23;;;;;;;4.03;1.80;;;;;;;10.14;100.00;101927.53;5062495;28;20297;-74
2022/10/19 08:39:49;;;;;;;9.23;1.93;;;;;;;10.18;100.00;101927.53;5063624;28;20201;-75
2022/10/19 08:42:19;;;;;;;3.20;1.80;;;;;;;10.30;100.00;101934.41;5060777;28;20674;-75
2022/10/19 08:45:00;;;;;;;3.07;1.83;;;;;;;10.34;100.00;101936.19;5063364;28;20206;-74
2022/10/19 08:47:49;;;;;;;5.73;2.00;;;;;;;10.28;100.00;101935.31;5056128;28;20213;-74
2022/10/19 08:50:21;;;;;;;8.20;1.93;;;;;;;10.36;100.00;101933.56;5047999;28;20205;-75
2022/10/19 08:52:53;;;;;;;4.47;2.10;;;;;;;10.45;100.00;101930.03;5066708;28;20233;-75
2022/10/19 08:55:29;;;;;;;5.27;3.00;;;;;;;10.46;100.00;101937.00;5064615;28;20213;-75
2022/10/19 08:58:03;;;;;;;5.00;1.90;;;;;;;10.38;100.00;101935.31;5058245;28;20206;-74
2022/10/19 09:00:38;;;;;;;4.77;2.10;;;;;;;10.39;100.00;101937.00;5065873;28;20309;-75
2022/10/19 09:03:15;;;;;;;5.47;1.90;;;;;;;10.44;100.00;101939.63;5063075;28;20248;-75
2022/10/19 09:05:49;;;;;;;4.30;1.93;;;;;;;10.45;100.00;101935.25;5062510;28;20213;-74
2022/10/19 09:08:17;;;;;;;4.33;1.77;;;;;;;10.42;100.00;101936.16;5059678;28;20229;-75
2022/10/19 09:10:48;;;;;;;5.67;2.00;;;;;;;10.27;100.00;101938.78;5068539;28;20231;-74
2022/10/19 09:13:19;;;;;;;2.97;1.90;;;;;;;10.20;100.00;101940.53;5059482;28;20560;-74
2022/10/19 09:15:48;;;;;;;6.93;1.90;;;;;;;10.04;100.00;101947.53;5064435;28;20719;-75
2022/10/19 09:18:23;;;;;;;6.33;1.63;;;;;;;10.07;100.00;101944.94;5066355;28;20253;-75
2022/10/19 09:20:57;;;;;;;2.50;1.30;;;;;;;10.18;100.00;101947.50;5071656;28;20200;-75
2022/10/19 09:23:29;;;;;;;2.87;1.60;;;;;;;10.26;100.00;101939.66;5063186;28;20229;-75
2022/10/19 09:25:57;;;;;;;6.27;2.40;;;;;;;10.36;100.00;101944.88;5064187;28;20209;-74
2022/10/19 09:28:40;;;;;;;2.23;1.90;;;;;;;10.44;100.00;101947.44;5058834;28;20198;-74
2022/10/19 09:31:13;;;;;;;6.13;1.90;;;;;;;10.56;100.00;101947.38;5057099;28;20207;-74
2022/10/19 09:33:41;;;;;;;8.30;1.73;;;;;;;10.67;100.00;101951.69;5064887;28;20240;-75
2022/10/19 09:36:09;;;;;;;2.90;1.60;;;;;;;10.73;100.00;101947.28;5059676;28;20210;-75
2022/10/19 09:38:36;;;;;;;2.33;1.87;;;;;;;10.79;100.00;101949.84;5062270;28;20689;-75
2022/10/19 09:41:15;;;;;;;3.70;1.93;;;;;;;10.83;100.00;101944.63;5062472;28;20221;-75
2022/10/19 09:43:49;;;;;;;2.50;2.07;;;;;;;10.88;100.00;101943.72;5057378;28;20227;-75
2022/10/19 09:46:29;;;;;;;7.00;2.10;;;;;;;10.99;100.00;101947.13;5063712;28;20738;-74
2022/10/19 09:48:55;;;;;;;4.43;1.40;;;;;;;11.03;100.00;101952.31;5062684;28;20209;-75
2022/10/19 09:51:23;;;;;;;2.80;1.33;;;;;;;11.21;100.00;101948.72;5065078;28;20681;-74
2022/10/19 09:53:52;;;;;;;6.47;1.60;;;;;;;11.27;100.00;101956.50;5059249;28;20233;-74
2022/10/19 09:56:19;;;;;;;4.97;1.60;;;;;;;11.43;100.00;101960.72;5065741;28;20699;-75
2022/10/19 09:58:51;;;;;;;4.23;1.80;;;;;;;11.52;100.00;101959.75;5065887;28;20214;-75
2022/10/19 10:01:31;;;;;;;3.30;1.70;;;;;;;11.77;100.00;101960.41;5064960;28;20574;-75
2022/10/19 10:04:05;;;;;;;2.87;1.70;;;;;;;11.76;100.00;101958.69;5067138;28;20811;-75
2022/10/19 10:06:34;;;;;;;6.50;1.70;;;;;;;11.79;100.00;101955.19;5063879;28;20225;-75
2022/10/19 10:09:02;;;;;;;1.53;1.33;;;;;;;11.82;100.00;101965.56;5062809;28;20206;-75
2022/10/19 10:11:32;;;;;;;2.40;1.43;;;;;;;11.66;100.00;101965.75;5063678;28;20289;-74
2022/10/19 10:14:04;;;;;;;3.63;1.30;;;;;;;11.55;100.00;101955.38;5059891;28;20306;-74
2022/10/19 10:16:34;;;;;;;3.80;1.50;;;;;;;11.49;100.00;101965.88;5059835;28;20539;-74
2022/10/19 10:19:05;;;;;;;4.23;1.60;;;;;;;11.44;100.00;101965.06;5062242;28;20213;-75
2022/10/19 10:21:35;;;;;;;4.40;1.30;;;;;;;11.43;100.00;101963.31;5057909;28;20202;-75
2022/10/19 10:24:05;;;;;;;1.43;1.10;;;;;;;11.42;100.00;101963.34;5060385;28;20717;-75
2022/10/19 10:26:33;;;;;;;3.03;1.33;;;;;;;11.39;100.00;101961.63;5061551;28;20233;-75
2022/10/19 10:29:00;;;;;;;2.27;1.50;;;;;;;11.44;100.00;101964.22;5063636;28;20203;-75
2022/10/19 10:31:29;;;;;;;4.57;1.33;;;;;;;11.56;100.00;101957.13;5055283;28;20205;-75
2022/10/19 10:34:00;;;;;;;2.00;1.17;;;;;;;11.50;100.00;101965.03;5054884;28;20310;-75
2022/10/19 10:36:31;;;;;;;4.77;1.63;;;;;;;11.46;100.00;101967.66;5060353;28;20273;-75
2022/10/19 10:39:05;;;;;;;3.53;1.50;;;;;;;11.29;100.00;101971.28;5061432;28;20201;-75
2022/10/19 10:41:38;;;;;;;6.60;1.70;;;;;;;11.18;100.00;101976.56;5052547;28;20213;-75
2022/10/19 10:44:08;;;;;;;2.40;1.53;;;;;;;11.08;100.00;101980.13;5058020;28;20225;-75
2022/10/19 10:46:38;;;;;;;3.93;1.40;;;;;;;10.98;100.00;101984.53;5056396;28;20209;-75
2022/10/19 10:49:06;;;;;;;1.43;1.10;;;;;;;10.98;100.00;101979.31;5058559;28;20623;-74
2022/10/19 10:51:37;;;;;;;2.70;1.30;;;;;;;10.81;100.00;101981.16;5058137;28;20205;-74
2022/10/19 10:54:17;;;;;;;1.40;1.30;;;;;;;10.73;100.00;101982.94;5057753;28;20741;-75
2022/10/19 10:56:57;;;;;;;2.17;1.07;;;;;;;10.72;100.00;101981.22;5051434;28;20725;-74
2022/10/19 10:59:28;;;;;;;2.70;1.20;;;;;;;10.72;100.00;101984.69;5061873;28;20214;-75
2022/10/19 11:02:02;;;;;;;2.53;1.07;;;;;;;10.78;100.00;101973.34;5063750;28;20652;-74
2022/10/19 11:04:35;;;;;;;7.37;1.40;;;;;;;10.82;100.00;101975.06;5060941;28;20717;-74
2022/10/19 11:07:10;;;;;;;2.90;1.30;;;;;;;10.89;100.00;101975.91;5065658;28;20203;-74
2022/10/19 11:09:42;;;;;;;4.00;1.67;;;;;;;10.93;100.00;101977.63;5062944;28;20205;-75
2022/10/19 11:12:13;;;;;;;2.80;1.37;;;;;;;11.03;100.00;101970.59;5062465;28;20788;-75
2022/10/19 11:14:46;;;;;;;3.43;1.00;;;;;;;11.15;100.00;101973.09;5055634;28;20249;-74
2022/10/19 11:17:19;;;;;;;2.50;1.30;;;;;;;11.20;100.00;101975.69;5062177;28;20205;-75
2022/10/19 11:19:45;;;;;;;6.10;1.30;;;;;;;11.18;100.00;101975.69;5059166;28;20237;-74
2022/10/19 11:22:20;;;;;;;1.10;1.00;;;;;;;11.30;100.00;101979.97;5059401;28;20190;-75
2022/10/19 11:25:00;;;;;;;6.40;1.07;;;;;;;11.30;100.00;101979.97;5060729;28;20276;-74
2022/10/19 11:27:41;;;;;;;0.80;0.80;;;;;;;11.31;100.00;101981.69;5062318;28;20213;-75
2022/10/19 11:30:10;;;;;;;3.33;1.00;;;;;;;11.33;100.00;101977.34;5059601;28;20793;-75